Time;durP1;ratioP1;P1;durP2;ratioP2;P2;SDS_P1;SDS_P2;PMS_P1;PMS_P2;Temp;Humidity;BMP_temperature;BMP_pressure;BME280_temperature;BME280_humidity;BME280_pressure;Samples;Min_cycle;Max_cycle;Signal;HPM_P1;HPM_P2
2021/07/18 00:02:49;;;;;;;24.40;22.23;;;20.10;99.90;;;;;;10361944;28;20581;-79
2021/07/18 00:08:11;;;;;;;22.03;19.80;;;20.00;99.90;;;;;;10372173;28;20216;-83
2021/07/18 00:13:33;;;;;;;23.37;21.10;;;20.00;99.90;;;;;;10377952;28;20265;-83
2021/07/18 00:18:56;;;;;;;23.23;20.83;;;19.90;99.90;;;;;;10379326;28;20198;-80
2021/07/18 00:24:18;;;;;;;22.70;20.23;;;19.90;99.90;;;;;;10383321;28;20219;-78
2021/07/18 00:29:43;;;;;;;22.97;20.73;;;19.80;99.90;;;;;;10375108;28;20194;-79
2021/07/18 00:35:08;;;;;;;22.53;20.50;;;19.80;99.90;;;;;;10372742;28;20253;-81
2021/07/18 00:40:30;;;;;;;23.43;20.60;;;19.80;99.90;;;;;;10382124;28;20202;-80
2021/07/18 00:45:56;;;;;;;21.60;19.30;;;19.80;99.90;;;;;;10379424;28;20211;-81
2021/07/18 00:51:20;;;;;;;22.60;19.50;;;19.70;99.90;;;;;;10388151;28;20214;-79
2021/07/18 00:56:42;;;;;;;20.90;19.00;;;19.70;99.90;;;;;;10388878;28;20222;-81
2021/07/18 01:02:05;;;;;;;22.67;20.37;;;19.70;99.90;;;;;;10388172;28;20317;-81
2021/07/18 01:07:28;;;;;;;19.57;17.53;;;19.60;99.90;;;;;;10392296;28;20304;-82
2021/07/18 01:12:50;;;;;;;19.80;17.73;;;19.60;99.90;;;;;;10393254;28;20249;-83
2021/07/18 01:18:13;;;;;;;19.60;17.70;;;19.50;99.90;;;;;;10398408;28;20575;-81
2021/07/18 01:23:39;;;;;;;18.70;16.87;;;19.40;99.90;;;;;;10383816;28;20592;-79
2021/07/18 01:29:01;;;;;;;18.17;16.17;;;19.40;99.90;;;;;;10381938;28;20205;-79
2021/07/18 01:34:24;;;;;;;17.40;15.80;;;19.40;99.90;;;;;;10380776;28;20233;-83
2021/07/18 01:39:48;;;;;;;19.20;15.20;;;19.30;99.90;;;;;;10390550;28;20206;-80
2021/07/18 01:45:11;;;;;;;22.00;14.90;;;19.30;99.90;;;;;;10386848;28;20241;-81
2021/07/18 01:50:33;;;;;;;15.77;14.23;;;19.30;99.90;;;;;;10383932;28;20202;-81
2021/07/18 01:55:56;;;;;;;15.60;13.90;;;19.20;99.90;;;;;;10375756;28;20231;-80
2021/07/18 02:01:19;;;;;;;13.97;12.77;;;19.10;99.90;;;;;;10387705;28;20213;-81
2021/07/18 02:06:41;;;;;;;14.50;13.10;;;19.00;99.90;;;;;;10386212;28;20218;-81
2021/07/18 02:12:06;;;;;;;14.20;13.00;;;19.00;99.90;;;;;;10390288;28;20232;-82
2021/07/18 02:17:28;;;;;;;12.93;11.77;;;18.90;99.90;;;;;;10379889;28;20194;-81
2021/07/18 02:22:52;;;;;;;13.37;11.90;;;18.90;99.90;;;;;;10381540;28;20217;-79
2021/07/18 02:28:15;;;;;;;12.07;10.97;;;18.80;99.90;;;;;;10381523;28;20207;-82
2021/07/18 02:33:37;;;;;;;11.80;10.70;;;18.80;99.90;;;;;;10384207;28;20328;-80
2021/07/18 02:38:59;;;;;;;11.90;10.87;;;18.70;99.90;;;;;;10384653;28;20261;-83
2021/07/18 02:44:23;;;;;;;11.67;10.47;;;18.70;99.90;;;;;;10380246;28;20273;-79
2021/07/18 02:49:45;;;;;;;11.00;9.90;;;18.60;99.90;;;;;;10387618;28;20198;-84
2021/07/18 02:55:08;;;;;;;9.87;8.80;;;18.60;99.90;;;;;;10380837;28;20226;-84
2021/07/18 03:00:31;;;;;;;10.97;9.80;;;18.60;99.90;;;;;;10391260;28;20199;-83
2021/07/18 03:05:53;;;;;;;12.23;9.30;;;18.50;99.90;;;;;;10390952;28;20214;-83
2021/07/18 03:11:15;;;;;;;11.37;9.33;;;18.50;99.90;;;;;;10391393;28;20197;-81
2021/07/18 03:16:39;;;;;;;10.27;8.70;;;18.40;99.90;;;;;;10386001;28;20248;-84
2021/07/18 03:22:00;;;;;;;10.13;9.27;;;18.40;99.90;;;;;;10365994;28;20251;-80
2021/07/18 03:27:22;;;;;;;9.83;9.03;;;18.30;99.90;;;;;;10373553;28;20199;-81
2021/07/18 03:32:46;;;;;;;10.20;9.20;;;18.20;99.90;;;;;;10379839;28;20571;-80
2021/07/18 03:38:08;;;;;;;9.80;8.80;;;18.20;99.90;;;;;;10392713;28;20655;-80
2021/07/18 03:43:30;;;;;;;9.20;8.13;;;18.20;99.90;;;;;;10368236;28;20682;-84
2021/07/18 03:48:53;;;;;;;9.77;8.57;;;18.20;99.90;;;;;;10380133;28;20568;-82
2021/07/18 03:54:15;;;;;;;9.13;8.20;;;18.20;99.90;;;;;;10366969;28;20268;-81
2021/07/18 03:59:37;;;;;;;9.30;7.87;;;18.20;99.90;;;;;;10382776;28;20497;-80
2021/07/18 04:05:00;;;;;;;15.17;8.27;;;18.10;99.90;;;;;;10371297;28;20299;-79
2021/07/18 04:10:22;;;;;;;9.17;8.37;;;18.10;99.90;;;;;;10371757;28;20194;-81
2021/07/18 04:15:44;;;;;;;9.53;8.20;;;18.10;99.90;;;;;;10374594;28;20233;-84
2021/07/18 04:21:08;;;;;;;10.53;8.60;;;18.20;99.90;;;;;;10387863;28;20217;-82
2021/07/18 04:26:30;;;;;;;8.17;7.47;;;18.10;99.90;;;;;;10371590;28;20198;-81
2021/07/18 04:31:52;;;;;;;8.97;8.17;;;18.10;99.90;;;;;;10360829;28;20214;-81
2021/07/18 04:37:15;;;;;;;10.80;9.10;;;18.10;99.90;;;;;;10367580;28;20226;-82
2021/07/18 04:42:37;;;;;;;9.20;7.53;;;18.00;99.90;;;;;;10374406;28;20226;-82
2021/07/18 04:48:01;;;;;;;7.90;7.10;;;18.00;99.90;;;;;;10367011;28;20204;-82
2021/07/18 04:53:24;;;;;;;10.17;7.40;;;18.00;99.90;;;;;;10378378;28;20260;-82
2021/07/18 04:58:46;;;;;;;11.40;6.60;;;18.10;99.90;;;;;;10373867;28;20600;-82
2021/07/18 05:04:09;;;;;;;8.60;6.17;;;18.10;99.90;;;;;;10386183;28;20241;-81
2021/07/18 05:09:32;;;;;;;5.63;5.17;;;18.20;99.90;;;;;;10395281;28;20277;-83
2021/07/18 05:14:54;;;;;;;10.07;7.43;;;18.20;99.90;;;;;;10352266;28;20242;-79
2021/07/18 05:20:18;;;;;;;5.17;4.87;;;18.30;99.90;;;;;;10369660;28;20217;-80
2021/07/18 05:25:41;;;;;;;7.03;6.00;;;18.30;99.90;;;;;;10357840;28;20210;-82
2021/07/18 05:31:03;;;;;;;6.37;5.77;;;18.40;99.90;;;;;;10382989;28;20193;-79
2021/07/18 05:36:25;;;;;;;9.03;5.23;;;18.40;99.90;;;;;;10377582;28;20218;-79
2021/07/18 05:41:48;;;;;;;7.07;5.00;;;18.50;99.90;;;;;;10376396;28;20214;-83
2021/07/18 05:47:11;;;;;;;7.10;4.57;;;18.50;99.90;;;;;;10389765;28;20194;-80
2021/07/18 05:52:33;;;;;;;9.20;5.10;;;18.60;99.90;;;;;;10393639;28;20287;-84
2021/07/18 05:57:56;;;;;;;5.63;4.70;;;18.60;99.90;;;;;;10380090;28;20209;-82
2021/07/18 06:03:18;;;;;;;8.30;4.03;;;18.70;99.90;;;;;;10380130;28;20210;-80
2021/07/18 06:08:40;;;;;;;14.50;4.40;;;18.80;99.90;;;;;;10374861;28;20213;-82
2021/07/18 06:14:03;;;;;;;6.80;4.23;;;18.90;99.90;;;;;;10372146;28;20282;-81
2021/07/18 06:19:25;;;;;;;5.23;3.73;;;19.00;99.90;;;;;;10373547;28;20198;-81
2021/07/18 06:24:47;;;;;;;3.77;3.20;;;19.10;99.90;;;;;;10370744;28;20206;-81
2021/07/18 06:30:14;;;;;;;3.60;3.30;;;19.20;99.90;;;;;;10380846;28;20198;-81
2021/07/18 06:35:36;;;;;;;3.30;3.10;;;19.30;99.90;;;;;;10376649;28;20588;-82
2021/07/18 06:40:58;;;;;;;5.27;3.60;;;19.40;99.90;;;;;;10369844;28;20191;-83
2021/07/18 06:46:21;;;;;;;9.80;3.90;;;19.60;99.90;;;;;;10375128;28;20210;-82
2021/07/18 06:51:43;;;;;;;6.07;3.67;;;19.80;99.90;;;;;;10375298;28;20218;-82
2021/07/18 06:57:05;;;;;;;7.73;3.20;;;20.00;99.90;;;;;;10379634;28;20222;-82
2021/07/18 07:02:29;;;;;;;3.33;3.03;;;20.30;99.90;;;;;;10380759;28;20218;-82
2021/07/18 07:07:51;;;;;;;5.60;3.07;;;20.50;99.90;;;;;;10372832;28;20190;-82
2021/07/18 07:13:13;;;;;;;4.70;3.00;;;20.70;99.90;;;;;;10374830;28;20636;-81
2021/07/18 07:18:36;;;;;;;3.87;2.90;;;21.00;99.90;;;;;;10373264;28;20688;-84
2021/07/18 07:23:58;;;;;;;3.40;3.20;;;21.30;99.90;;;;;;10373741;28;20694;-84
2021/07/18 07:29:20;;;;;;;4.13;3.27;;;21.50;99.90;;;;;;10370469;28;20213;-84
2021/07/18 07:34:46;;;;;;;4.30;3.17;;;21.70;99.90;;;;;;10365224;28;20226;-84
2021/07/18 07:40:10;;;;;;;4.40;2.93;;;22.00;99.90;;;;;;10375204;28;20252;-83
2021/07/18 07:45:32;;;;;;;3.57;2.83;;;22.30;99.90;;;;;;10376327;28;20293;-82
2021/07/18 07:50:57;;;;;;;3.60;2.97;;;22.70;99.90;;;;;;10351081;28;20238;-82
2021/07/18 07:56:19;;;;;;;3.70;2.90;;;23.10;99.90;;;;;;10368551;28;20214;-82
2021/07/18 08:01:41;;;;;;;4.10;3.67;;;23.60;99.90;;;;;;10373130;28;20222;-84
2021/07/18 08:07:05;;;;;;;3.23;2.93;;;24.10;99.90;;;;;;10367169;28;20191;-82
2021/07/18 08:12:27;;;;;;;5.73;2.97;;;24.60;99.90;;;;;;10373668;28;20230;-83
2021/07/18 08:17:49;;;;;;;3.23;2.70;;;25.10;99.90;;;;;;10372709;28;20218;-82
2021/07/18 08:23:14;;;;;;;3.20;2.90;;;25.60;99.90;;;;;;10372561;28;20214;-83
2021/07/18 08:28:38;;;;;;;3.33;2.80;;;26.10;99.90;;;;;;10331811;28;20206;-85
2021/07/18 08:34:00;;;;;;;3.23;2.93;;;26.50;99.90;;;;;;10356421;28;20218;-84
2021/07/18 08:39:23;;;;;;;3.40;3.10;;;26.90;99.90;;;;;;10372484;28;20201;-84
2021/07/18 08:44:46;;;;;;;4.20;3.17;;;27.40;98.30;;;;;;10357972;28;20305;-85
2021/07/18 08:50:10;;;;;;;3.10;2.90;;;27.60;98.20;;;;;;10372774;28;20203;-85
2021/07/18 08:55:34;;;;;;;5.23;3.50;;;27.80;97.90;;;;;;10369511;28;20241;-85
2021/07/18 09:00:56;;;;;;;3.67;3.20;;;28.00;95.50;;;;;;10366176;28;20202;-85
2021/07/18 09:06:18;;;;;;;5.80;3.87;;;28.10;94.80;;;;;;10368505;28;20378;-85
2021/07/18 09:11:41;;;;;;;3.87;3.57;;;28.30;94.00;;;;;;10368369;28;20317;-84
2021/07/18 09:17:05;;;;;;;5.40;3.03;;;28.40;91.80;;;;;;10392075;28;20222;-84
2021/07/18 09:22:27;;;;;;;3.73;3.30;;;28.60;92.40;;;;;;10379640;28;20665;-85
2021/07/18 09:27:50;;;;;;;6.00;3.00;;;28.80;91.90;;;;;;10375735;28;20195;-85
2021/07/18 09:33:23;;;;;;;3.20;2.80;;;29.00;90.80;;;;;;10374350;28;20218;-84
2021/07/18 10:26:22;;;;;;;3.13;2.90;;;36.90;64.20;;;;;;10157707;29;20279;-87
2021/07/18 10:31:50;;;;;;;3.07;2.87;;;36.70;57.60;;;;;;10167402;28;20270;-84
2021/07/18 10:37:13;;;;;;;5.67;2.90;;;34.10;59.30;;;;;;10398662;28;20209;-84
2021/07/18 10:48:54;;;;;;;4.53;3.30;;;30.30;71.40;;;;;;10356219;28;20222;-84
2021/07/18 11:06:20;;;;;;;6.40;3.60;;;27.40;79.30;;;;;;10366870;28;20242;-82
2021/07/18 11:11:43;;;;;;;5.60;3.63;;;26.70;83.50;;;;;;10368442;28;20257;-82
2021/07/18 11:17:07;;;;;;;3.80;3.40;;;26.30;83.70;;;;;;10336641;28;20207;-81
2021/07/18 11:23:01;;;;;;;4.90;3.20;;;26.00;82.70;;;;;;10359232;28;20222;-80
2021/07/18 11:28:50;;;;;;;3.37;3.13;;;25.60;84.30;;;;;;10372798;28;20309;-80
2021/07/18 11:34:18;;;;;;;8.80;3.30;;;25.40;87.70;;;;;;10381842;28;20741;-80
2021/07/18 11:39:44;;;;;;;3.97;3.63;;;25.20;87.20;;;;;;10386363;28;20249;-80
2021/07/18 11:45:11;;;;;;;4.00;3.63;;;25.10;87.10;;;;;;10371965;28;20226;-79
2021/07/18 11:50:34;;;;;;;4.93;4.10;;;25.00;88.50;;;;;;10378877;28;20571;-80
2021/07/18 11:55:58;;;;;;;3.77;3.40;;;25.00;88.90;;;;;;10384680;28;20226;-79
2021/07/18 12:01:24;;;;;;;3.60;3.20;;;24.90;89.70;;;;;;10393650;28;20199;-80
2021/07/18 12:06:46;;;;;;;3.47;3.20;;;24.90;91.10;;;;;;10377017;28;20233;-80
2021/07/18 12:12:11;;;;;;;4.67;3.90;;;24.80;91.00;;;;;;10383181;28;20229;-81
2021/07/18 12:17:34;;;;;;;7.53;4.30;;;24.80;90.20;;;;;;10374404;28;20221;-80
2021/07/18 12:23:11;;;;;;;6.50;5.90;;;24.80;90.50;;;;;;10376164;28;20223;-79
2021/07/18 12:28:35;;;;;;;10.57;6.93;;;24.70;88.80;;;;;;10374217;28;20222;-80
2021/07/18 12:33:58;;;;;;;7.60;6.90;;;24.70;90.90;;;;;;10388510;28;20774;-81
2021/07/18 12:39:22;;;;;;;9.17;7.40;;;24.70;86.30;;;;;;10370634;28;20201;-80
2021/07/18 12:44:51;;;;;;;8.23;7.50;;;24.80;89.70;;;;;;10382077;28;20222;-83
2021/07/18 12:50:31;;;;;;;10.33;9.33;;;24.80;90.00;;;;;;10379853;28;20289;-80
2021/07/18 12:55:58;;;;;;;11.63;9.80;;;24.80;88.30;;;;;;10383542;28;20722;-82
2021/07/18 13:01:27;;;;;;;11.53;9.93;;;24.90;86.20;;;;;;10381101;28;20745;-81
2021/07/18 13:06:52;;;;;;;10.73;9.63;;;25.00;87.50;;;;;;10379287;28;20253;-81
2021/07/18 13:12:17;;;;;;;12.30;10.27;;;25.00;86.80;;;;;;10379873;28;20237;-81
2021/07/18 13:17:54;;;;;;;12.60;10.80;;;25.10;89.30;;;;;;10372648;28;20802;-81
2021/07/18 13:23:16;;;;;;;12.43;11.10;;;25.20;89.20;;;;;;10398103;28;20261;-81
2021/07/18 13:28:38;;;;;;;11.20;10.00;;;25.20;90.50;;;;;;10368710;28;20253;-80
2021/07/18 13:34:05;;;;;;;10.83;9.83;;;25.20;88.90;;;;;;10364501;28;20238;-82
2021/07/18 13:39:28;;;;;;;12.83;11.53;;;25.20;88.40;;;;;;10373742;28;20194;-81
2021/07/18 13:44:50;;;;;;;12.93;11.70;;;25.20;88.50;;;;;;10388125;28;20249;-82
2021/07/18 13:50:14;;;;;;;12.13;9.57;;;25.20;86.60;;;;;;10379810;28;20582;-81
2021/07/18 13:55:36;;;;;;;12.73;11.43;;;25.30;88.80;;;;;;10383992;28;20214;-82
2021/07/18 14:00:58;;;;;;;12.07;10.80;;;25.40;88.00;;;;;;10384900;28;20198;-80
2021/07/18 14:06:23;;;;;;;13.20;11.90;;;25.40;88.20;;;;;;10380009;28;20234;-80
2021/07/18 14:11:45;;;;;;;13.63;12.30;;;25.40;85.50;;;;;;10371152;28;20262;-82
2021/07/18 14:17:07;;;;;;;13.60;12.30;;;25.40;86.40;;;;;;10374617;28;20212;-82
2021/07/18 14:22:30;;;;;;;15.00;13.50;;;25.40;86.00;;;;;;10383693;28;20262;-81
2021/07/18 14:27:53;;;;;;;15.93;12.83;;;25.50;84.70;;;;;;10380154;28;20218;-83
2021/07/18 14:33:15;;;;;;;14.83;13.37;;;25.50;86.40;;;;;;10385702;28;20256;-84
2021/07/18 14:38:39;;;;;;;14.57;13.27;;;25.50;85.70;;;;;;10380644;28;20550;-84
2021/07/18 14:44:01;;;;;;;15.27;13.70;;;25.50;83.80;;;;;;10386739;28;20222;-83
2021/07/18 14:49:22;;;;;;;15.60;14.13;;;25.50;87.70;;;;;;10387957;28;20678;-81
2021/07/18 14:54:46;;;;;;;14.70;13.30;;;25.50;86.20;;;;;;10351555;28;20702;-81
2021/07/18 15:00:11;;;;;;;14.47;13.10;;;25.50;87.10;;;;;;10370333;28;20213;-84
2021/07/18 15:05:33;;;;;;;14.00;12.70;;;25.40;90.00;;;;;;10372170;28;20301;-82
2021/07/18 15:10:56;;;;;;;13.53;12.20;;;25.30;87.40;;;;;;10371366;28;20289;-83
2021/07/18 15:16:18;;;;;;;16.00;14.30;;;25.40;87.60;;;;;;10370735;28;20296;-83
2021/07/18 15:21:40;;;;;;;15.00;13.50;;;25.40;86.40;;;;;;10363186;28;20370;-84
2021/07/18 15:27:04;;;;;;;14.53;13.13;;;25.40;86.30;;;;;;10372246;28;20238;-84
2021/07/18 15:32:27;;;;;;;14.60;13.10;;;25.40;87.50;;;;;;10373005;28;20234;-84
2021/07/18 15:37:49;;;;;;;14.23;12.73;;;25.30;87.20;;;;;;10369528;28;20222;-83
2021/07/18 15:43:12;;;;;;;15.07;13.47;;;25.30;88.20;;;;;;10368154;28;20238;-85
2021/07/18 15:48:35;;;;;;;13.50;12.10;;;25.30;87.80;;;;;;10372526;28;20232;-80
2021/07/18 15:53:57;;;;;;;12.97;11.60;;;25.40;88.30;;;;;;10375762;28;20222;-85
2021/07/18 15:59:20;;;;;;;13.87;12.30;;;25.30;88.30;;;;;;10373934;28;20589;-83
2021/07/18 16:04:42;;;;;;;13.50;12.10;;;25.30;89.10;;;;;;10362077;28;20722;-82
2021/07/18 16:10:06;;;;;;;13.83;11.60;;;25.30;89.70;;;;;;10372711;28;20213;-82
2021/07/18 16:15:29;;;;;;;13.10;11.77;;;25.30;88.70;;;;;;10374647;28;20221;-82
2021/07/18 16:20:51;;;;;;;16.57;12.03;;;25.30;90.30;;;;;;10374205;28;20470;-83
2021/07/18 16:26:13;;;;;;;13.37;12.07;;;25.30;89.00;;;;;;10335063;28;20218;-85
2021/07/18 16:31:37;;;;;;;12.47;11.27;;;25.20;90.10;;;;;;10334225;28;20227;-82
2021/07/18 16:36:59;;;;;;;12.43;11.13;;;25.20;90.20;;;;;;10334573;28;20667;-80
2021/07/18 16:42:21;;;;;;;21.03;13.90;;;25.20;90.10;;;;;;10336527;28;20222;-80
2021/07/18 16:47:44;;;;;;;13.10;11.00;;;25.20;90.70;;;;;;10330332;28;20218;-81
2021/07/18 16:53:07;;;;;;;11.33;10.13;;;25.20;90.30;;;;;;10325089;28;20679;-81
2021/07/18 16:58:30;;;;;;;9.63;8.63;;;25.10;90.00;;;;;;10330395;28;20195;-81
2021/07/18 17:03:53;;;;;;;11.00;10.00;;;25.10;90.40;;;;;;10335521;28;20225;-79
2021/07/18 17:09:15;;;;;;;10.33;9.37;;;25.10;90.70;;;;;;10328239;28;20574;-82
2021/07/18 17:14:37;;;;;;;9.27;8.40;;;25.10;91.20;;;;;;10332043;28;20227;-82
2021/07/18 17:20:00;;;;;;;7.03;6.40;;;25.10;91.00;;;;;;10333179;28;20218;-82
2021/07/18 17:25:22;;;;;;;6.23;5.73;;;25.10;91.00;;;;;;10330445;28;20605;-81
2021/07/18 17:30:44;;;;;;;12.93;6.10;;;25.00;91.50;;;;;;10322016;28;20211;-82
2021/07/18 17:36:08;;;;;;;7.20;6.50;;;25.00;93.00;;;;;;10352777;28;20607;-81
2021/07/18 17:41:30;;;;;;;5.33;4.93;;;25.00;93.70;;;;;;10379543;28;20221;-82
2021/07/18 17:46:52;;;;;;;4.70;4.30;;;24.80;92.50;;;;;;10378017;28;20223;-82
2021/07/18 17:52:16;;;;;;;5.13;4.53;;;24.80;92.40;;;;;;10380330;28;20214;-82
2021/07/18 17:57:38;;;;;;;5.03;4.53;;;24.90;93.00;;;;;;10349399;28;20195;-82
2021/07/18 18:03:04;;;;;;;5.10;3.90;;;24.80;92.30;;;;;;10374325;28;20285;-82
2021/07/18 18:08:28;;;;;;;4.63;4.20;;;24.80;93.20;;;;;;10373701;28;20230;-82
2021/07/18 18:13:50;;;;;;;6.90;4.00;;;24.70;92.90;;;;;;10365384;28;20562;-80
2021/07/18 18:19:12;;;;;;;3.73;3.43;;;24.70;93.30;;;;;;10376407;28;20218;-81
2021/07/18 18:24:35;;;;;;;3.57;3.37;;;24.60;93.90;;;;;;10365663;28;20222;-82
2021/07/18 18:29:57;;;;;;;3.87;2.90;;;24.60;94.50;;;;;;10386256;28;20234;-81
2021/07/18 18:35:19;;;;;;;3.40;3.10;;;24.40;93.90;;;;;;10382268;28;20222;-80
2021/07/18 18:40:43;;;;;;;4.87;3.30;;;24.40;95.00;;;;;;10375815;28;20202;-81
2021/07/18 18:46:05;;;;;;;3.67;2.80;;;24.30;94.30;;;;;;10374938;28;20237;-80
2021/07/18 18:51:27;;;;;;;3.80;3.50;;;24.20;96.00;;;;;;10376123;28;20211;-81
2021/07/18 18:56:50;;;;;;;3.73;3.43;;;24.10;96.30;;;;;;10378275;28;20194;-81
2021/07/18 19:02:13;;;;;;;3.20;2.90;;;24.00;95.90;;;;;;10371054;28;20225;-79
2021/07/18 19:07:36;;;;;;;4.47;4.17;;;23.90;97.50;;;;;;10377635;28;20249;-79
2021/07/18 19:12:59;;;;;;;3.90;3.50;;;23.90;96.80;;;;;;10378360;28;20241;-81
2021/07/18 19:18:22;;;;;;;5.07;3.70;;;23.80;97.70;;;;;;10372301;28;20636;-81
2021/07/18 19:23:44;;;;;;;4.70;3.90;;;23.70;98.60;;;;;;10366593;28;20222;-80
2021/07/18 19:29:09;;;;;;;4.13;3.13;;;23.60;98.70;;;;;;10382209;28;20233;-82
2021/07/18 19:34:31;;;;;;;4.63;3.50;;;23.50;99.20;;;;;;10384177;28;20221;-80
2021/07/18 19:39:53;;;;;;;3.53;3.30;;;23.30;99.30;;;;;;10395036;28;20240;-80
2021/07/18 19:45:17;;;;;;;3.40;3.20;;;23.20;99.50;;;;;;10373940;28;20714;-81
2021/07/18 19:50:39;;;;;;;3.30;3.00;;;23.10;99.90;;;;;;10375340;28;20257;-82
2021/07/18 19:56:01;;;;;;;3.30;2.77;;;23.00;99.90;;;;;;10376324;28;20223;-81
2021/07/18 20:01:25;;;;;;;6.03;5.53;;;22.90;99.90;;;;;;10374685;28;20199;-80
2021/07/18 20:06:47;;;;;;;4.40;3.67;;;22.90;99.90;;;;;;10367229;28;20218;-82
2021/07/18 20:12:09;;;;;;;4.23;3.83;;;22.80;99.90;;;;;;10373640;28;20218;-81
2021/07/18 20:17:32;;;;;;;5.53;4.73;;;22.70;99.90;;;;;;10361339;28;20206;-82
2021/07/18 20:22:54;;;;;;;5.63;4.23;;;22.60;99.90;;;;;;10396330;28;20228;-82
2021/07/18 20:28:17;;;;;;;4.30;3.70;;;22.50;99.90;;;;;;10386268;28;20275;-81
2021/07/18 20:33:40;;;;;;;7.97;3.60;;;22.50;99.90;;;;;;10374599;28;20249;-80
2021/07/18 20:39:02;;;;;;;11.70;4.00;;;22.40;99.90;;;;;;10369459;28;20213;-82
2021/07/18 20:44:24;;;;;;;6.73;3.87;;;22.40;99.90;;;;;;10368770;28;20229;-82
2021/07/18 20:49:48;;;;;;;4.63;3.30;;;22.30;99.90;;;;;;10364833;28;20210;-82
2021/07/18 20:55:10;;;;;;;4.53;3.63;;;22.30;99.90;;;;;;10384581;28;20690;-82
2021/07/18 21:00:41;;;;;;;3.80;3.50;;;22.20;99.90;;;;;;10352788;28;20203;-83
2021/07/18 21:06:05;;;;;;;3.87;3.47;;;22.10;99.90;;;;;;10319063;28;20639;-82
2021/07/18 21:17:28;;;;;;;4.00;3.57;;;22.00;99.90;;;;;;10338965;28;20206;-83
2021/07/18 21:22:52;;;;;;;4.57;3.60;;;22.00;99.90;;;;;;10337349;28;20223;-83
2021/07/18 21:28:14;;;;;;;3.77;3.47;;;22.00;99.90;;;;;;10349087;28;20314;-84
2021/07/18 21:33:37;;;;;;;3.57;2.90;;;21.90;99.90;;;;;;10335382;28;20231;-83
2021/07/18 21:39:01;;;;;;;4.50;4.13;;;21.90;99.90;;;;;;10338550;28;20199;-83
2021/07/18 21:44:23;;;;;;;5.30;3.80;;;21.90;99.90;;;;;;10333930;28;20219;-83
2021/07/18 21:49:45;;;;;;;3.60;3.30;;;21.90;99.90;;;;;;10344922;28;20242;-83
2021/07/18 21:55:10;;;;;;;4.50;4.03;;;21.90;99.90;;;;;;10345195;28;20222;-83
2021/07/18 22:00:35;;;;;;;4.90;3.97;;;21.90;99.90;;;;;;10336272;28;20287;-83
2021/07/18 22:05:57;;;;;;;3.40;3.20;;;21.80;99.90;;;;;;10331743;28;20246;-83
2021/07/18 22:11:21;;;;;;;3.80;3.50;;;21.80;99.90;;;;;;10335793;28;20210;-83
2021/07/18 22:16:43;;;;;;;5.60;3.40;;;21.80;99.90;;;;;;10408451;28;20205;-83
2021/07/18 22:22:05;;;;;;;3.40;3.20;;;21.70;99.90;;;;;;10392373;28;20257;-83
2021/07/18 22:27:29;;;;;;;3.60;3.33;;;21.70;99.90;;;;;;10373135;28;20301;-83
2021/07/18 22:32:52;;;;;;;3.50;3.20;;;21.70;99.90;;;;;;10359083;28;20228;-83
2021/07/18 22:38:15;;;;;;;6.50;3.87;;;21.70;99.90;;;;;;10377362;28;20205;-83
2021/07/18 22:43:38;;;;;;;3.60;3.40;;;21.60;99.90;;;;;;10387795;28;20225;-83
2021/07/18 22:49:00;;;;;;;3.90;3.33;;;21.60;99.90;;;;;;10369756;28;20256;-84
2021/07/18 22:54:22;;;;;;;3.50;3.20;;;21.60;99.90;;;;;;10375016;28;20222;-83
2021/07/18 22:59:46;;;;;;;3.83;3.53;;;21.60;99.90;;;;;;10364159;28;20217;-83
2021/07/18 23:05:09;;;;;;;4.77;3.33;;;21.50;99.90;;;;;;10382259;28;20219;-83
2021/07/18 23:10:31;;;;;;;3.63;3.43;;;21.50;99.90;;;;;;10374287;28;20698;-83
2021/07/18 23:15:55;;;;;;;3.90;3.60;;;21.50;99.90;;;;;;10356144;28;20324;-83
2021/07/18 23:21:26;;;;;;;4.37;3.97;;;21.40;99.90;;;;;;10370602;28;20205;-83
2021/07/18 23:26:48;;;;;;;3.83;3.53;;;21.40;99.90;;;;;;10355359;28;20636;-83
2021/07/18 23:32:12;;;;;;;4.30;3.13;;;21.30;99.90;;;;;;10369020;28;20444;-83
2021/07/18 23:37:34;;;;;;;7.10;3.20;;;21.20;99.90;;;;;;10390277;28;20178;-83
2021/07/18 23:42:56;;;;;;;3.97;3.57;;;21.20;99.90;;;;;;10371728;28;20221;-83
2021/07/18 23:48:19;;;;;;;3.67;3.37;;;21.10;99.90;;;;;;10373625;28;20569;-83
2021/07/18 23:53:41;;;;;;;6.87;3.50;;;21.00;99.90;;;;;;10374388;28;20558;-83
2021/07/18 23:59:03;;;;;;;3.97;3.43;;;20.90;99.90;;;;;;10359582;28;20202;-83
